createdAt,value
2023-04-18T00:01:30.544Z,100642.03
2023-04-18T00:03:32.061Z,100638.47
2023-04-18T00:05:33.633Z,100638.47
2023-04-18T00:07:35.577Z,100636.38
2023-04-18T00:09:37.218Z,100632.94
2023-04-18T00:11:38.750Z,100634.44
2023-04-18T00:13:40.569Z,100641.22
2023-04-18T00:15:43.799Z,100642.03
2023-04-18T00:17:45.266Z,100634.97
2023-04-18T00:19:47.031Z,100636.47
2023-04-18T00:21:49.456Z,100632.75
2023-04-18T00:23:51.694Z,100634.06
2023-04-18T00:25:53.226Z,100634.41
2023-04-18T00:27:54.640Z,100633.41
2023-04-18T00:29:56.034Z,100636.38
2023-04-18T00:31:58.041Z,100636.38
2023-04-18T00:33:59.490Z,100643.63
2023-04-18T00:36:00.895Z,100637.59
2023-04-18T00:38:02.421Z,100641.84
2023-04-18T00:40:05.482Z,100640.41
2023-04-18T00:42:06.894Z,100640.41
2023-04-18T00:44:08.340Z,100637.09
2023-04-18T00:46:10.902Z,100633.03
2023-04-18T00:48:12.373Z,100639.13
2023-04-18T00:50:14.984Z,100641.28
2023-04-18T00:52:18.425Z,100636.03
2023-04-18T00:54:20.199Z,100641.44
2023-04-18T00:56:23.683Z,100637.19
2023-04-18T00:58:26.235Z,100631.63
2023-04-18T01:00:27.681Z,100638.38
2023-04-18T01:02:30.498Z,100637.69
2023-04-18T01:04:32.602Z,100629.00
2023-04-18T01:06:34.722Z,100626.56
2023-04-18T01:08:36.518Z,100635.75
2023-04-18T01:10:38.024Z,100634.44
2023-04-18T01:12:39.588Z,100623.13
2023-04-18T01:14:42.990Z,100623.63
2023-04-18T01:16:44.375Z,100622.16
2023-04-18T01:18:46.273Z,100627.41
2023-04-18T01:20:49.733Z,100618.56
2023-04-18T01:22:51.758Z,100626.94
2023-04-18T01:24:53.184Z,100622.16
2023-04-18T01:26:54.570Z,100626.94
2023-04-18T01:28:56.064Z,100616.28
2023-04-18T01:30:57.466Z,100621.34
2023-04-18T01:33:01.483Z,100622.16
2023-04-18T01:35:03.774Z,100615.38
2023-04-18T01:37:05.223Z,100619.31
2023-04-18T01:39:07.171Z,100615.72
2023-04-18T01:41:08.642Z,100613.09
2023-04-18T01:43:10.021Z,100614.06
2023-04-18T01:45:12.290Z,100616.53
2023-04-18T01:47:13.730Z,100617.38
2023-04-18T01:49:16.148Z,100620.13
2023-04-18T01:51:17.561Z,100622.28
2023-04-18T01:53:18.951Z,100617.84
2023-04-18T01:55:20.516Z,100619.66
2023-04-18T01:57:21.932Z,100623.59
2023-04-18T01:59:23.338Z,100620.28
2023-04-18T02:01:24.822Z,100611.13
2023-04-18T02:03:26.534Z,100610.97
2023-04-18T02:05:28.101Z,100615.38
2023-04-18T02:07:29.633Z,100614.75
2023-04-18T02:09:31.066Z,100615.72
2023-04-18T02:11:32.526Z,100614.75
2023-04-18T02:13:33.970Z,100618.34
2023-04-18T02:15:35.711Z,100610.31
2023-04-18T02:17:37.857Z,100621.78
2023-04-18T02:19:39.360Z,100609.97
2023-04-18T02:21:41.871Z,100609.78
2023-04-18T02:23:43.262Z,100611.59
2023-04-18T02:25:44.689Z,100612.59
2023-04-18T02:27:46.078Z,100614.41
2023-04-18T02:29:47.506Z,100612.47
2023-04-18T02:31:48.969Z,100611.66
2023-04-18T02:33:50.389Z,100611.16
2023-04-18T02:35:51.803Z,100606.25
2023-04-18T02:37:53.297Z,100610.53
2023-04-18T02:39:54.746Z,100615.47
2023-04-18T02:41:56.161Z,100617.63
2023-04-18T02:43:58.857Z,100622.03
2023-04-18T02:46:00.349Z,100610.56
2023-04-18T02:48:01.869Z,100624.19
2023-04-18T02:50:04.062Z,100625.69
2023-04-18T02:52:05.503Z,100624.19
2023-04-18T02:54:06.912Z,100626.31
2023-04-18T02:56:08.422Z,100621.41
2023-04-18T02:58:09.950Z,100617.63
2023-04-18T03:00:12.062Z,100618.44
2023-04-18T03:02:13.591Z,100608.28
2023-04-18T03:04:15.126Z,100619.56
2023-04-18T03:06:16.742Z,100620.06
2023-04-18T03:08:18.204Z,100610.91
2023-04-18T03:10:19.613Z,100612.03
2023-04-18T03:12:21.080Z,100609.25
2023-04-18T03:14:22.467Z,100609.91
2023-04-18T03:16:27.159Z,100626.81
2023-04-18T03:18:28.687Z,100623.00
2023-04-18T03:20:30.111Z,100617.28
2023-04-18T03:22:31.858Z,100628.78
2023-04-18T03:24:33.242Z,100626.47
2023-04-18T03:26:34.682Z,100630.44
2023-04-18T03:28:36.191Z,100621.91
2023-04-18T03:30:37.616Z,100630.25
2023-04-18T03:32:39.113Z,100634.69
2023-04-18T03:34:40.715Z,100629.78
2023-04-18T03:36:42.233Z,100632.53
2023-04-18T03:38:43.861Z,100637.63
2023-04-18T03:40:46.210Z,100633.03
2023-04-18T03:42:47.590Z,100637.63
2023-04-18T03:44:49.031Z,100635.66
2023-04-18T03:46:50.644Z,100643.03
2023-04-18T03:48:52.079Z,100634.47
2023-04-18T03:50:53.473Z,100629.91
2023-04-18T03:52:55.015Z,100633.00
2023-04-18T03:54:56.454Z,100642.66
2023-04-18T03:56:59.319Z,100646.75
2023-04-18T03:59:00.827Z,100648.06
2023-04-18T04:01:02.327Z,100643.97
2023-04-18T04:03:04.012Z,100639.84
2023-04-18T04:05:05.818Z,100638.88
2023-04-18T04:07:07.286Z,100646.88
2023-04-18T04:09:08.719Z,100641.47
2023-04-18T04:11:10.141Z,100638.38
2023-04-18T04:13:11.558Z,100642.28
2023-04-18T04:15:13.034Z,100646.25
2023-04-18T04:17:14.459Z,100641.97
2023-04-18T04:19:15.943Z,100644.75
2023-04-18T04:21:18.441Z,100645.56
2023-04-18T04:23:22.609Z,100643.59
2023-04-18T04:25:28.417Z,100642.25
2023-04-18T04:27:29.885Z,100639.81
2023-04-18T04:29:31.604Z,100649.31
2023-04-18T04:31:33.123Z,100654.88
2023-04-18T04:33:35.561Z,100660.94
2023-04-18T04:35:37.047Z,100660.94
2023-04-18T04:37:41.076Z,100653.44
2023-04-18T04:39:42.466Z,100656.38
2023-04-18T04:41:43.846Z,100659.94
2023-04-18T04:43:46.591Z,100659.94
2023-04-18T04:45:49.444Z,100653.38
2023-04-18T04:47:51.017Z,100659.09
2023-04-18T04:49:52.430Z,100664.81
2023-04-18T04:51:53.890Z,100660.75
2023-04-18T04:53:55.509Z,100664.81
2023-04-18T04:55:57.937Z,100661.72
2023-04-18T04:57:59.370Z,100663.03
2023-04-18T05:00:00.748Z,100661.91
2023-04-18T05:02:02.351Z,100668.63
2023-04-18T05:04:04.198Z,100663.38
2023-04-18T05:06:06.028Z,100666.03
2023-04-18T05:08:07.507Z,100668.00
2023-04-18T05:10:09.425Z,100669.00
2023-04-18T05:12:10.847Z,100668.03
2023-04-18T05:14:12.915Z,100679.69
2023-04-18T05:16:14.757Z,100676.41
2023-04-18T05:18:16.318Z,100662.44
2023-04-18T05:20:17.752Z,100663.88
2023-04-18T05:22:19.208Z,100667.28
2023-04-18T05:24:20.780Z,100670.06
2023-04-18T05:26:22.597Z,100676.75
2023-04-18T05:28:26.284Z,100667.13
2023-04-18T05:30:27.756Z,100665.41
2023-04-18T05:32:29.253Z,100682.94
2023-04-18T05:34:31.701Z,100682.78
2023-04-18T05:36:33.196Z,100685.06
2023-04-18T05:38:34.688Z,100677.16
2023-04-18T05:40:36.208Z,100677.81
2023-04-18T05:42:37.673Z,100683.59
2023-04-18T05:44:39.090Z,100684.50
2023-04-18T05:46:40.715Z,100679.56
2023-04-18T05:48:42.198Z,100687.13
2023-04-18T05:50:43.561Z,100689.75
2023-04-18T05:52:44.961Z,100689.53
2023-04-18T05:54:46.404Z,100689.53
2023-04-18T05:56:48.233Z,100693.63
2023-04-18T05:58:51.257Z,100695.06
2023-04-18T06:00:53.316Z,100695.38
2023-04-18T06:02:54.879Z,100693.63
2023-04-18T06:04:56.934Z,100699.81
2023-04-18T06:06:58.936Z,100700.47
2023-04-18T06:09:00.429Z,100704.25
2023-04-18T06:11:02.009Z,100714.75
2023-04-18T06:13:03.450Z,100710.63
2023-04-18T06:15:05.851Z,100716.16
2023-04-18T06:17:07.382Z,100713.91
2023-04-18T06:19:08.793Z,100714.22
2023-04-18T06:21:10.288Z,100712.56
2023-04-18T06:23:11.712Z,100712.88
2023-04-18T06:25:13.165Z,100712.28
2023-04-18T06:27:27.909Z,100717.38
2023-04-18T06:29:33.168Z,100710.41
2023-04-18T06:31:34.644Z,100726.72
2023-04-18T06:33:37.566Z,100726.50
2023-04-18T06:35:39.104Z,100723.22
2023-04-18T06:37:43.973Z,100720.06
2023-04-18T06:39:46.002Z,100716.59
2023-04-18T06:41:48.791Z,100717.88
2023-04-18T06:44:02.894Z,100721.56
2023-04-18T06:46:06.013Z,100718.00
2023-04-18T06:48:08.972Z,100723.38
2023-04-18T06:50:10.755Z,100727.53
2023-04-18T06:52:12.191Z,100729.91
2023-04-18T06:54:13.901Z,100728.28
2023-04-18T06:56:15.772Z,100729.19
2023-04-18T06:58:17.424Z,100731.97
2023-04-18T07:00:19.023Z,100725.69
2023-04-18T07:02:20.451Z,100733.66
2023-04-18T07:04:22.074Z,100731.31
2023-04-18T07:06:23.654Z,100734.03
2023-04-18T07:08:25.163Z,100735.34
2023-04-18T07:10:26.589Z,100732.28
2023-04-18T07:12:28.075Z,100735.78
2023-04-18T07:14:30.142Z,100728.41
2023-04-18T07:16:32.775Z,100732.78
2023-04-18T07:18:37.874Z,100731.78
2023-04-18T07:20:40.301Z,100735.97
2023-04-18T07:22:41.810Z,100726.44
2023-04-18T07:24:44.030Z,100732.28
2023-04-18T07:26:45.692Z,100737.63
2023-04-18T07:28:47.115Z,100739.38
2023-04-18T07:30:48.680Z,100742.47
2023-04-18T07:32:50.464Z,100743.56
2023-04-18T07:34:52.753Z,100750.00
2023-04-18T07:36:54.218Z,100740.66
2023-04-18T07:38:55.635Z,100748.38
2023-04-18T07:41:01.578Z,100744.28
2023-04-18T07:43:03.374Z,100743.47
2023-04-18T07:45:05.382Z,100748.84
2023-04-18T07:47:11.244Z,100747.81
2023-04-18T07:49:12.990Z,100750.19
2023-04-18T07:51:14.767Z,100746.28
2023-04-18T07:53:16.924Z,100747.03
2023-04-18T07:55:18.663Z,100750.00
2023-04-18T07:57:20.690Z,100752.00
2023-04-18T07:59:22.395Z,100749.94
2023-04-18T08:01:24.790Z,100753.00
2023-04-18T08:03:27.754Z,100755.53
2023-04-18T08:05:29.567Z,100754.53
2023-04-18T08:07:31.051Z,100762.16
2023-04-18T08:09:32.519Z,100752.19
2023-04-18T08:11:34.512Z,100762.00
2023-04-18T08:13:35.917Z,100757.44
2023-04-18T08:15:37.302Z,100762.50
2023-04-18T08:17:38.993Z,100762.81
2023-04-18T08:19:40.539Z,100770.44
2023-04-18T08:21:41.940Z,100772.44
2023-04-18T08:23:43.337Z,100771.63
2023-04-18T08:25:44.813Z,100776.09
2023-04-18T08:27:46.236Z,100776.16
2023-04-18T08:29:47.628Z,100773.78
2023-04-18T08:31:49.085Z,100771.97
2023-04-18T08:33:50.648Z,100768.25
2023-04-18T08:35:52.133Z,100773.69
2023-04-18T08:37:53.559Z,100774.78
2023-04-18T08:39:54.986Z,100769.53
2023-04-18T08:42:00.509Z,100778.63
2023-04-18T08:44:02.072Z,100770.44
2023-04-18T08:46:03.569Z,100778.06
2023-04-18T08:48:06.177Z,100778.34
2023-04-18T08:50:09.586Z,100781.16
2023-04-18T08:52:13.789Z,100779.25
2023-04-18T08:54:15.624Z,100782.81
2023-04-18T08:56:17.028Z,100782.91
2023-04-18T08:58:25.476Z,100784.09
2023-04-18T09:00:27.488Z,100786.66
2023-04-18T09:02:43.559Z,100776.34
2023-04-18T09:04:48.505Z,100784.44
2023-04-18T09:06:53.165Z,100783.22
2023-04-18T09:08:59.130Z,100787.19
2023-04-18T09:11:20.764Z,100793.38
2023-04-18T09:13:39.347Z,100791.28
2023-04-18T09:15:40.888Z,100786.25
2023-04-18T09:17:50.681Z,100791.56
2023-04-18T09:19:54.508Z,100793.66
2023-04-18T09:22:00.868Z,100799.44
2023-04-18T09:24:17.607Z,100791.38
2023-04-18T09:26:33.848Z,100794.81
2023-04-18T09:28:37.390Z,100797.00
2023-04-18T09:30:40.681Z,100789.47
2023-04-18T09:32:42.213Z,100791.28
2023-04-18T09:34:43.681Z,100797.97
2023-04-18T09:36:45.271Z,100790.63
2023-04-18T09:38:48.023Z,100785.00
2023-04-18T09:41:07.198Z,100782.31
2023-04-18T09:43:20.433Z,100789.28
2023-04-18T09:45:23.631Z,100786.53
2023-04-18T09:47:26.945Z,100785.13
2023-04-18T09:49:29.046Z,100789.06
2023-04-18T09:51:31.733Z,100784.13
2023-04-18T09:53:37.909Z,100784.50
2023-04-18T09:55:40.152Z,100779.97
2023-04-18T09:57:45.030Z,100782.25
2023-04-18T10:00:17.656Z,100780.97
2023-04-18T10:02:22.591Z,100780.28
2023-04-18T10:04:24.765Z,100778.41
2023-04-18T10:06:28.515Z,100784.66
2023-04-18T10:08:30.366Z,100777.06
2023-04-18T10:10:32.758Z,100779.81
2023-04-18T10:12:35.879Z,100774.97
2023-04-18T10:14:39.203Z,100780.19
2023-04-18T10:16:42.271Z,100780.88
2023-04-18T10:18:43.758Z,100763.47
2023-04-18T10:20:46.890Z,100768.59
2023-04-18T10:22:49.349Z,100767.44
2023-04-18T10:24:53.882Z,100769.09
2023-04-18T10:26:55.963Z,100770.31
2023-04-18T10:28:58.990Z,100769.31
2023-04-18T10:31:05.463Z,100771.16
2023-04-18T10:33:31.022Z,100765.25
2023-04-18T10:35:35.821Z,100767.06
2023-04-18T10:37:58.859Z,100759.50
2023-04-18T10:40:05.854Z,100775.59
2023-04-18T10:42:07.225Z,100761.16
2023-04-18T10:44:09.127Z,100763.38
2023-04-18T10:46:24.017Z,100767.66
2023-04-18T10:48:32.812Z,100763.38
2023-04-18T10:50:34.340Z,100768.84
2023-04-18T10:52:36.080Z,100758.69
2023-04-18T10:54:40.611Z,100756.88
2023-04-18T10:56:52.245Z,100757.13
2023-04-18T10:58:53.888Z,100756.47
2023-04-18T11:00:55.432Z,100754.03
2023-04-18T11:02:57.610Z,100749.16
2023-04-18T11:05:00.663Z,100749.53
2023-04-18T11:07:04.936Z,100750.88
2023-04-18T11:09:13.869Z,100742.81
2023-04-18T11:11:16.002Z,100748.31
2023-04-18T11:13:17.373Z,100751.06
2023-04-18T11:15:22.167Z,100749.41
2023-04-18T11:17:35.672Z,100742.50
2023-04-18T11:19:37.121Z,100741.06
2023-04-18T11:21:38.590Z,100742.50
2023-04-18T11:23:41.152Z,100745.97
2023-04-18T11:25:44.723Z,100743.59
2023-04-18T11:27:48.215Z,100741.22
2023-04-18T11:29:53.132Z,100753.69
2023-04-18T11:31:58.318Z,100744.22
2023-04-18T11:34:01.973Z,100740.16
2023-04-18T11:36:04.750Z,100741.72
2023-04-18T11:38:07.457Z,100737.72
2023-04-18T11:40:09.888Z,100735.78
2023-04-18T11:42:11.511Z,100739.59
2023-04-18T11:44:13.133Z,100749.34
2023-04-18T11:46:14.724Z,100741.38
2023-04-18T11:48:17.004Z,100739.16
2023-04-18T11:50:18.454Z,100740.22
2023-04-18T11:52:19.848Z,100730.44
2023-04-18T11:54:44.504Z,100742.00
2023-04-18T11:56:48.533Z,100738.41
2023-04-18T11:58:50.023Z,100743.56
2023-04-18T12:00:51.438Z,100742.69
2023-04-18T12:02:53.681Z,100753.56
2023-04-18T12:04:59.529Z,100748.81
2023-04-18T12:07:02.513Z,100747.19
2023-04-18T12:09:05.505Z,100743.84
2023-04-18T12:11:07.067Z,100746.53
2023-04-18T12:13:08.880Z,100747.00
2023-04-18T12:15:15.093Z,100752.00
2023-04-18T12:17:16.643Z,100754.03
2023-04-18T12:19:20.444Z,100751.38
2023-04-18T12:21:21.879Z,100744.22
2023-04-18T12:23:35.570Z,100745.44
2023-04-18T12:25:37.248Z,100746.84
2023-04-18T12:27:48.538Z,100743.84
2023-04-18T12:29:49.920Z,100743.31
2023-04-18T12:31:51.563Z,100734.41
2023-04-18T12:33:54.361Z,100740.69
2023-04-18T12:35:56.065Z,100735.63
2023-04-18T12:38:00.039Z,100737.19
2023-04-18T12:40:01.468Z,100735.69
2023-04-18T12:42:02.897Z,100730.78
2023-04-18T12:44:04.588Z,100733.44
2023-04-18T12:46:06.021Z,100732.38
2023-04-18T12:48:07.576Z,100735.66
2023-04-18T12:50:11.641Z,100729.03
2023-04-18T12:52:13.122Z,100734.28
2023-04-18T12:54:14.753Z,100725.88
2023-04-18T12:56:16.271Z,100729.47
2023-04-18T12:58:18.701Z,100732.53
2023-04-18T13:00:23.290Z,100720.34
2023-04-18T13:02:24.956Z,100727.50
2023-04-18T13:04:26.724Z,100723.06
2023-04-18T13:06:28.287Z,100723.41
2023-04-18T13:08:29.833Z,100726.69
2023-04-18T13:10:31.541Z,100734.63
2023-04-18T13:12:33.026Z,100726.22
2023-04-18T13:14:34.498Z,100728.41
2023-04-18T13:16:36.120Z,100731.53
2023-04-18T13:18:37.760Z,100718.22
2023-04-18T13:20:39.142Z,100716.91
2023-04-18T13:22:41.831Z,100719.44
2023-04-18T13:24:43.286Z,100711.38
2023-04-18T13:26:44.686Z,100730.41
2023-04-18T13:28:46.451Z,100714.72
2023-04-18T13:30:47.851Z,100718.31
2023-04-18T13:32:49.385Z,100709.94
2023-04-18T13:34:53.831Z,100714.53
2023-04-18T13:36:56.712Z,100713.06
2023-04-18T13:39:00.928Z,100712.88
2023-04-18T13:41:12.967Z,100709.16
2023-04-18T13:43:15.388Z,100710.72
2023-04-18T13:45:16.890Z,100707.38
2023-04-18T13:47:18.858Z,100709.69
2023-04-18T13:49:20.437Z,100703.44
2023-04-18T13:51:21.896Z,100701.41
2023-04-18T13:53:23.315Z,100695.88
2023-04-18T13:55:25.106Z,100700.50
2023-04-18T13:57:26.498Z,100705.06
2023-04-18T13:59:28.580Z,100699.53
2023-04-18T14:01:30.026Z,100704.25
2023-04-18T14:03:31.909Z,100714.78
2023-04-18T14:05:34.193Z,100707.66
2023-04-18T14:07:36.253Z,100700.75
2023-04-18T14:09:37.757Z,100704.28
2023-04-18T14:11:39.306Z,100715.53
2023-04-18T14:13:40.954Z,100711.31
2023-04-18T14:15:42.443Z,100704.09
2023-04-18T14:17:45.690Z,100709.78
2023-04-18T14:19:48.557Z,100695.81
2023-04-18T14:21:49.986Z,100699.09
2023-04-18T14:23:52.399Z,100693.78
2023-04-18T14:25:54.111Z,100696.97
2023-04-18T14:28:09.764Z,100694.91
2023-04-18T14:30:11.838Z,100697.28
2023-04-18T14:32:13.288Z,100698.63
2023-04-18T14:34:14.690Z,100700.38
2023-04-18T14:36:16.868Z,100696.16
2023-04-18T14:38:18.975Z,100696.63
2023-04-18T14:40:22.586Z,100690.25
2023-04-18T14:42:24.015Z,100688.56
2023-04-18T14:44:25.422Z,100690.59
2023-04-18T14:46:28.259Z,100689.72
2023-04-18T14:48:29.909Z,100699.19
2023-04-18T14:50:31.591Z,100697.00
2023-04-18T14:52:33.008Z,100693.69
2023-04-18T14:54:34.476Z,100695.66
2023-04-18T14:56:36.106Z,100696.91
2023-04-18T14:58:37.580Z,100688.94
2023-04-18T15:00:39.202Z,100688.97
2023-04-18T15:02:41.243Z,100693.56
2023-04-18T15:04:42.866Z,100685.34
2023-04-18T15:06:44.364Z,100690.59
2023-04-18T15:08:46.268Z,100697.63
2023-04-18T15:10:47.710Z,100688.97
2023-04-18T15:12:50.956Z,100697.50
2023-04-18T15:14:53.771Z,100684.84
2023-04-18T15:16:55.330Z,100688.66
2023-04-18T15:18:56.960Z,100690.34
2023-04-18T15:21:01.340Z,100696.16
2023-04-18T15:23:03.140Z,100692.28
2023-04-18T15:25:05.527Z,100699.84
2023-04-18T15:27:07.716Z,100699.88
2023-04-18T15:29:09.087Z,100695.50
2023-04-18T15:31:10.912Z,100704.31
2023-04-18T15:33:13.810Z,100692.84
2023-04-18T15:35:15.264Z,100693.97
2023-04-18T15:37:16.777Z,100695.19
2023-04-18T15:39:21.828Z,100694.06
2023-04-18T15:41:23.252Z,100690.47
2023-04-18T15:43:24.639Z,100692.03
2023-04-18T15:45:26.242Z,100693.59
2023-04-18T15:47:28.078Z,100692.44
2023-04-18T15:49:29.548Z,100700.16
2023-04-18T15:51:31.037Z,100703.13
2023-04-18T15:53:32.744Z,100688.09
2023-04-18T15:55:34.279Z,100683.00
2023-04-18T15:57:35.913Z,100689.03
2023-04-18T15:59:37.417Z,100687.78
2023-04-18T16:01:38.939Z,100686.88
2023-04-18T16:03:40.902Z,100691.50
2023-04-18T16:05:42.788Z,100693.78
2023-04-18T16:07:44.416Z,100689.25
2023-04-18T16:09:45.855Z,100679.78
2023-04-18T16:11:47.319Z,100682.53
2023-04-18T16:13:48.934Z,100671.97
2023-04-18T16:15:50.525Z,100675.47
2023-04-18T16:17:52.017Z,100674.69
2023-04-18T16:19:54.195Z,100678.19
2023-04-18T16:21:55.584Z,100674.56
2023-04-18T16:23:57.028Z,100669.56
2023-04-18T16:25:58.785Z,100672.97
2023-04-18T16:28:00.446Z,100666.44
2023-04-18T16:30:02.924Z,100667.63
2023-04-18T16:32:06.516Z,100679.50
2023-04-18T16:34:07.929Z,100679.81
2023-04-18T16:36:09.480Z,100688.28
2023-04-18T16:38:10.901Z,100688.03
2023-04-18T16:40:12.456Z,100686.31
2023-04-18T16:42:15.643Z,100687.56
2023-04-18T16:44:17.401Z,100686.59
2023-04-18T16:46:19.103Z,100679.16
2023-04-18T16:48:20.590Z,100684.41
2023-04-18T16:50:22.671Z,100684.09
2023-04-18T16:52:24.438Z,100673.44
2023-04-18T16:54:25.953Z,100682.81
2023-04-18T16:56:27.375Z,100677.75
2023-04-18T16:58:28.806Z,100673.72
2023-04-18T17:00:30.179Z,100675.19
2023-04-18T17:02:31.839Z,100674.06
2023-04-18T17:04:33.558Z,100682.06
2023-04-18T17:06:35.249Z,100674.78
2023-04-18T17:08:36.694Z,100672.69
2023-04-18T17:10:38.166Z,100677.81
2023-04-18T17:12:39.723Z,100672.06
2023-04-18T17:14:41.113Z,100678.97
2023-04-18T17:16:42.627Z,100675.97
2023-04-18T17:18:44.120Z,100668.91
2023-04-18T17:20:45.614Z,100673.34
2023-04-18T17:22:46.999Z,100676.81
2023-04-18T17:24:48.425Z,100684.31
2023-04-18T17:26:50.130Z,100680.75
2023-04-18T17:28:51.589Z,100678.38
2023-04-18T17:30:53.075Z,100678.47
2023-04-18T17:32:54.590Z,100677.78
2023-04-18T17:34:56.134Z,100677.47
2023-04-18T17:36:57.549Z,100683.22
2023-04-18T17:39:06.201Z,100679.81
2023-04-18T17:41:07.788Z,100684.47
2023-04-18T17:43:10.604Z,100685.06
2023-04-18T17:45:12.078Z,100694.34
2023-04-18T17:47:13.650Z,100687.47
2023-04-18T17:49:15.191Z,100697.97
2023-04-18T17:51:19.167Z,100691.91
2023-04-18T17:53:20.835Z,100693.34
2023-04-18T17:55:22.352Z,100692.63
2023-04-18T17:57:25.972Z,100696.31
2023-04-18T17:59:28.148Z,100705.72
2023-04-18T18:01:30.480Z,100702.75
2023-04-18T18:03:32.092Z,100695.41
2023-04-18T18:05:33.586Z,100705.72
2023-04-18T18:07:37.341Z,100701.78
2023-04-18T18:09:39.327Z,100706.16
2023-04-18T18:11:40.863Z,100707.81
2023-04-18T18:13:42.369Z,100711.38
2023-04-18T18:15:43.838Z,100713.69
2023-04-18T18:17:47.544Z,100716.97
2023-04-18T18:19:49.032Z,100714.13
2023-04-18T18:21:50.538Z,100717.69
2023-04-18T18:23:51.958Z,100726.09
2023-04-18T18:25:53.520Z,100725.81
2023-04-18T18:27:54.952Z,100723.97
2023-04-18T18:29:57.274Z,100717.31
2023-04-18T18:31:58.677Z,100720.38
2023-04-18T18:34:00.260Z,100719.78
2023-04-18T18:36:01.748Z,100720.75
2023-04-18T18:38:03.247Z,100727.50
2023-04-18T18:40:05.201Z,100729.56
2023-04-18T18:42:06.690Z,100734.28
2023-04-18T18:44:08.126Z,100736.28
2023-04-18T18:46:09.649Z,100735.06
2023-04-18T18:48:11.505Z,100733.63
2023-04-18T18:50:13.165Z,100736.88
2023-04-18T18:52:14.712Z,100732.59
2023-04-18T18:54:16.285Z,100732.59
2023-04-18T18:56:18.113Z,100735.25
2023-04-18T18:58:19.608Z,100734.41
2023-04-18T19:00:21.197Z,100739.06
2023-04-18T19:02:23.155Z,100748.00
2023-04-18T19:04:24.843Z,100746.78
2023-04-18T19:06:27.506Z,100746.97
2023-04-18T19:08:29.137Z,100749.81
2023-04-18T19:10:30.825Z,100751.81
2023-04-18T19:12:32.283Z,100753.25
2023-04-18T19:14:34.948Z,100756.06
2023-04-18T19:16:36.478Z,100755.38
2023-04-18T19:18:38.194Z,100769.59
2023-04-18T19:20:41.593Z,100767.09
2023-04-18T19:22:42.983Z,100762.22
2023-04-18T19:24:44.433Z,100759.94
2023-04-18T19:26:45.824Z,100768.84
2023-04-18T19:28:47.322Z,100762.25
2023-04-18T19:30:49.159Z,100770.19
2023-04-18T19:32:50.968Z,100768.72
2023-04-18T19:34:52.470Z,100773.56
2023-04-18T19:36:53.878Z,100771.19
2023-04-18T19:38:55.342Z,100776.38
2023-04-18T19:40:56.994Z,100767.13
2023-04-18T19:42:58.396Z,100769.72
2023-04-18T19:45:00.266Z,100773.59
2023-04-18T19:47:01.744Z,100771.03
2023-04-18T19:49:03.432Z,100775.19
2023-04-18T19:51:04.959Z,100777.44
2023-04-18T19:53:06.667Z,100776.19
2023-04-18T19:55:08.595Z,100773.44
2023-04-18T19:57:10.477Z,100779.16
2023-04-18T19:59:12.536Z,100774.31
2023-04-18T20:01:15.643Z,100775.06
2023-04-18T20:03:17.314Z,100771.84
2023-04-18T20:05:19.088Z,100783.16
2023-04-18T20:07:20.599Z,100785.69
2023-04-18T20:09:22.050Z,100781.41
2023-04-18T20:11:24.391Z,100782.91
2023-04-18T20:13:25.804Z,100780.28
2023-04-18T20:17:32.733Z,100778.44
2023-04-18T20:19:34.208Z,100787.16
2023-04-18T20:21:35.666Z,100781.72
2023-04-18T20:23:37.353Z,100793.53
2023-04-18T20:25:38.827Z,100787.16
2023-04-18T20:27:40.278Z,100785.69
2023-04-18T20:29:42.014Z,100783.66
2023-04-18T20:31:43.427Z,100786.31
2023-04-18T20:33:44.857Z,100780.78
2023-04-18T20:35:46.818Z,100784.81
2023-04-18T20:37:49.733Z,100783.72
2023-04-18T20:39:56.472Z,100787.25
2023-04-18T20:41:59.799Z,100789.31
2023-04-18T20:44:05.019Z,100788.88
2023-04-18T20:46:07.325Z,100795.03
2023-04-18T20:48:09.707Z,100795.59
2023-04-18T20:50:11.235Z,100783.88
2023-04-18T20:52:14.430Z,100787.75
2023-04-18T20:54:16.239Z,100783.00
2023-04-18T20:56:17.827Z,100791.59
2023-04-18T20:58:19.326Z,100787.50
2023-04-18T21:00:20.943Z,100788.75
2023-04-18T21:02:22.529Z,100782.84
2023-04-18T21:04:24.912Z,100789.75
2023-04-18T21:06:28.247Z,100783.91
2023-04-18T21:08:29.770Z,100792.03
2023-04-18T21:10:31.256Z,100793.47
2023-04-18T21:12:32.632Z,100790.19
2023-04-18T21:14:34.106Z,100796.34
2023-04-18T21:16:36.735Z,100798.78
2023-04-18T21:18:38.226Z,100798.00
2023-04-18T21:20:39.630Z,100792.66
2023-04-18T21:22:41.062Z,100801.63
2023-04-18T21:24:43.466Z,100801.03
2023-04-18T21:26:45.791Z,100801.03
2023-04-18T21:28:57.364Z,100798.78
2023-04-18T21:30:58.743Z,100794.53
2023-04-18T21:33:00.341Z,100798.81
2023-04-18T21:35:02.420Z,100801.19
2023-04-18T21:37:03.921Z,100803.44
2023-04-18T21:39:05.449Z,100801.06
2023-04-18T21:41:07.092Z,100809.56
2023-04-18T21:43:08.662Z,100800.25
2023-04-18T21:45:10.940Z,100806.53
2023-04-18T21:47:12.334Z,100814.84
2023-04-18T21:49:13.791Z,100806.53
2023-04-18T21:53:22.645Z,100802.47
2023-04-18T21:55:24.056Z,100803.72
2023-04-18T21:57:25.447Z,100797.16
2023-04-18T21:59:26.844Z,100800.84
2023-04-18T22:01:28.295Z,100801.06
2023-04-18T22:03:31.407Z,100795.41
2023-04-18T22:05:33.504Z,100803.31
2023-04-18T22:07:40.835Z,100794.97
2023-04-18T22:09:51.795Z,100795.97
2023-04-18T22:11:56.851Z,100799.25
2023-04-18T22:14:00.403Z,100800.84
2023-04-18T22:16:03.039Z,100793.97
2023-04-18T22:18:08.398Z,100800.28
2023-04-18T22:20:11.147Z,100792.16
2023-04-18T22:22:12.554Z,100790.06
2023-04-18T22:24:14.378Z,100801.06
2023-04-18T22:26:16.000Z,100790.13
2023-04-18T22:28:17.375Z,100793.56
2023-04-18T22:30:24.602Z,100795.78
2023-04-18T22:32:26.002Z,100797.22
2023-04-18T22:34:27.408Z,100793.75
2023-04-18T22:36:28.798Z,100785.09
2023-04-18T22:38:30.250Z,100786.25
2023-04-18T22:40:31.676Z,100781.81
2023-04-18T22:42:33.735Z,100791.53
2023-04-18T22:44:35.319Z,100783.84
2023-04-18T22:46:38.578Z,100793.00
2023-04-18T22:48:40.392Z,100788.56
2023-04-18T22:50:46.145Z,100793.63
2023-04-18T22:52:47.871Z,100785.69
2023-04-18T22:54:49.299Z,100792.25
2023-04-18T22:56:50.808Z,100791.41
2023-04-18T22:58:52.215Z,100788.16
2023-04-18T23:00:53.698Z,100797.34
2023-04-18T23:02:55.433Z,100792.25
2023-04-18T23:04:58.921Z,100795.31
2023-04-18T23:07:00.325Z,100788.34
2023-04-18T23:09:02.928Z,100793.66
2023-04-18T23:11:04.324Z,100788.00
2023-04-18T23:13:05.823Z,100787.38
2023-04-18T23:15:07.932Z,100786.94
2023-04-18T23:17:09.312Z,100790.84
2023-04-18T23:19:10.762Z,100794.09
2023-04-18T23:21:12.425Z,100789.84
2023-04-18T23:23:13.791Z,100794.69